.
WxDataArchive / Data Records for 2014-02-11
2014-02-10 February 2014 2014-02-12

Data Records for Tuesday, 11 February 2014

Time	Temp	Chill	HIndex	Humid	Dewpt	 Wind 	HiWind	WindDir	Rain 	Barom 
-----	----	-----	------	-----	-----	------	------	-------	-----	----- 
00:00	0.3	0.3	0.3	76	-5.4	0	0	---	0.00	30.459 
00:05	0.3	0.3	0.3	76	-5.4	0	0	---	0.00	30.459 
00:10	0.3	0.3	0.3	76	-5.4	0	0	---	0.00	30.459 
00:15	0.1	0.1	0.1	76	-5.6	0	0	---	0.00	30.462 
00:20	-0.2	-0.2	-0.2	76	-5.9	0	0	---	0.00	30.462 
00:25	-0.4	-0.4	-0.4	76	-6.1	0	0	---	0.00	30.462 
00:30	-0.8	-0.8	-0.8	76	-6.5	0	0	---	0.00	30.464 
00:35	-1.0	-1.0	-1.0	76	-6.7	0	0	---	0.00	30.464 
00:40	-1.0	-1.0	-1.0	77	-6.4	0	0	---	0.00	30.464 
00:45	-1.0	-1.0	-1.0	77	-6.4	0	0	---	0.00	30.465 
00:50	-0.6	-0.6	-0.6	78	-5.8	0	0	---	0.00	30.465 
00:55	-0.2	-0.2	-0.2	78	-5.4	0	0	---	0.00	30.465 
01:00	0.3	0.3	0.3	79	-4.6	0	1	270	0.00	30.466 
01:05	0.7	0.7	0.7	79	-4.3	0	1	270	0.00	30.466 
01:10	0.9	0.9	0.9	79	-4.1	0	0	---	0.00	30.466 
01:15	1.1	1.1	1.1	79	-3.9	0	1	270	0.00	30.466 
01:20	1.3	1.3	1.3	79	-3.7	0	1	270	0.00	30.466 
01:25	1.5	1.5	1.5	79	-3.5	0	0	---	0.00	30.466 
01:30	1.5	1.5	1.5	79	-3.5	0	0	---	0.00	30.468 
01:35	1.5	1.5	1.5	79	-3.5	0	0	---	0.00	30.468 
01:40	1.7	1.7	1.7	79	-3.3	0	1	270	0.00	30.468 
01:45	1.8	1.8	1.8	79	-3.2	0	1	270	0.00	30.472 
01:50	1.8	1.8	1.8	79	-3.2	0	1	270	0.00	30.472 
01:55	2.0	2.0	2.0	79	-3.0	0	1	270	0.00	30.472 
02:00	2.0	2.0	2.0	78	-3.3	0	1	270	0.00	30.463 
02:05	2.0	2.0	2.0	78	-3.3	0	1	270	0.00	30.463 
02:10	2.0	2.0	2.0	78	-3.3	0	1	270	0.00	30.463 
02:15	2.0	2.0	2.0	78	-3.3	0	1	270	0.00	30.463 
02:20	2.0	2.0	2.0	78	-3.3	0	0	---	0.00	30.463 
02:25	2.0	2.0	2.0	78	-3.3	0	0	---	0.00	30.463 
02:30	2.0	2.0	2.0	78	-3.3	0	1	270	0.00	30.464 
02:35	2.0	2.0	2.0	78	-3.3	0	1	270	0.00	30.464 
02:40	1.8	1.8	1.8	77	-3.7	0	1	270	0.00	30.464 
02:45	1.8	1.8	1.8	77	-3.7	0	1	270	0.00	30.462 
02:50	1.7	1.7	1.7	77	-3.8	0	1	270	0.00	30.462 
02:55	1.5	1.5	1.5	77	-4.0	0	0	---	0.00	30.462 
03:00	1.3	1.3	1.3	77	-4.2	0	0	---	0.00	30.460 
03:05	1.3	1.3	1.3	77	-4.2	0	0	---	0.00	30.460 
03:10	1.1	1.1	1.1	77	-4.4	0	0	---	0.00	30.460 
03:15	0.9	0.9	0.9	77	-4.6	0	0	---	0.00	30.457 
03:20	0.9	0.9	0.9	77	-4.6	0	0	---	0.00	30.457 
03:25	0.7	0.7	0.7	77	-4.8	0	0	---	0.00	30.457 
03:30	0.3	0.3	0.3	77	-5.2	0	0	---	0.00	30.449 
03:35	0.1	0.1	0.1	77	-5.4	0	0	---	0.00	30.449 
03:40	0.0	0.0	0.0	76	-5.7	0	0	---	0.00	30.449 
03:45	-0.4	-0.4	-0.4	76	-6.1	0	0	---	0.00	30.451 
03:50	-0.8	-0.8	-0.8	76	-6.5	0	0	---	0.00	30.451 
03:55	-1.0	-1.0	-1.0	76	-6.7	0	0	---	0.00	30.451 
04:00	-1.4	-1.4	-1.4	76	-7.1	0	0	---	0.00	30.450 
04:05	-1.6	-1.6	-1.6	76	-7.3	0	0	---	0.00	30.450 
04:10	-2.0	-2.0	-2.0	76	-7.7	0	0	---	0.00	30.450 
04:15	-2.2	-2.2	-2.2	76	-7.9	0	0	---	0.00	30.453 
04:20	-2.6	-2.6	-2.6	76	-8.3	0	0	---	0.00	30.453 
04:25	-2.8	-2.8	-2.8	76	-8.5	0	0	---	0.00	30.453 
04:30	-3.3	-3.3	-3.3	76	-8.9	0	0	---	0.00	30.456 
04:35	-3.7	-3.7	-3.7	76	-9.3	0	0	---	0.00	30.456 
04:40	-3.9	-3.9	-3.9	76	-9.5	0	0	---	0.00	30.456 
04:45	-4.1	-4.1	-4.1	76	-9.7	0	0	---	0.00	30.457 
04:50	-4.1	-4.1	-4.1	76	-9.7	0	0	---	0.00	30.457 
04:55	-4.6	-4.6	-4.6	76	-10.2	0	0	---	0.00	30.457 
05:00	-4.8	-4.8	-4.8	76	-10.4	0	0	---	0.00	30.461 
05:05	-5.0	-5.0	-5.0	76	-10.6	0	0	---	0.00	30.461 
05:10	-4.8	-4.8	-4.8	77	-10.1	0	0	---	0.00	30.461 
05:15	-5.0	-5.0	-5.0	76	-10.6	0	0	---	0.00	30.474 
05:20	-5.2	-5.2	-5.2	76	-10.8	0	0	---	0.00	30.474 
05:25	-5.4	-5.4	-5.4	76	-11.0	0	0	---	0.00	30.474 
05:30	-5.6	-5.6	-5.6	76	-11.2	0	0	---	0.00	30.484 
05:35	-5.6	-5.6	-5.6	76	-11.2	0	0	---	0.00	30.484 
05:40	-5.6	-5.6	-5.6	77	-10.9	0	0	---	0.00	30.484 
05:45	-5.4	-5.4	-5.4	77	-10.7	0	0	---	0.00	30.490 
05:50	-5.4	-5.4	-5.4	77	-10.7	0	0	---	0.00	30.490 
05:55	-5.2	-5.2	-5.2	77	-10.5	0	0	---	0.00	30.490 
06:00	-4.8	-4.8	-4.8	78	-9.9	0	0	---	0.00	30.498 
06:05	-4.1	-4.1	-4.1	78	-9.2	0	0	---	0.00	30.498 
06:10	-3.9	-3.9	-3.9	78	-9.0	0	0	---	0.00	30.498 
06:15	-3.5	-3.5	-3.5	78	-8.6	0	0	---	0.00	30.504 
06:20	-3.5	-3.5	-3.5	78	-8.6	0	0	---	0.00	30.504 
06:25	-3.5	-3.5	-3.5	78	-8.6	0	0	---	0.00	30.504 
06:30	-3.3	-3.3	-3.3	79	-8.2	0	0	---	0.00	30.506 
06:35	-2.6	-2.6	-2.6	79	-7.5	0	0	---	0.00	30.506 
06:40	-2.2	-2.2	-2.2	79	-7.1	0	0	---	0.00	30.506 
06:45	-1.8	-1.8	-1.8	79	-6.7	0	0	---	0.00	30.507 
06:50	-1.4	-1.4	-1.4	79	-6.3	0	0	---	0.00	30.507 
06:55	-1.2	-1.2	-1.2	79	-6.1	0	0	---	0.00	30.507 
07:00	-1.0	-1.0	-1.0	79	-5.9	0	0	---	0.00	30.514 
07:05	-0.8	-0.8	-0.8	79	-5.7	0	0	---	0.00	30.514 
07:10	-0.6	-0.6	-0.6	79	-5.5	0	0	---	0.00	30.514 
07:15	-0.4	-0.4	-0.4	79	-5.3	0	0	---	0.00	30.522 
07:20	-0.2	-0.2	-0.2	79	-5.1	0	0	---	0.00	30.522 
07:25	0.0	0.0	0.0	79	-4.9	0	0	---	0.00	30.522 
07:30	0.0	0.0	0.0	79	-4.9	0	0	---	0.00	30.530 
07:35	0.1	0.1	0.1	79	-4.8	0	0	---	0.00	30.530 
07:40	0.1	0.1	0.1	79	-4.8	0	1	270	0.00	30.530 
07:45	0.1	0.1	0.1	79	-4.8	0	1	270	0.00	30.535 
07:50	0.3	0.3	0.3	79	-4.6	0	1	270	0.00	30.535 
07:55	0.3	0.3	0.3	79	-4.6	0	0	---	0.00	30.535 
08:00	0.3	0.3	0.3	78	-4.9	0	0	---	0.00	30.537 
08:05	0.3	0.3	0.3	79	-4.6	0	1	270	0.00	30.537 
08:10	0.5	0.5	0.5	79	-4.4	0	0	---	0.00	30.537 
08:15	0.7	0.7	0.7	79	-4.3	0	0	---	0.00	30.540 
08:20	0.7	0.7	0.7	79	-4.3	0	0	---	0.00	30.540 
08:25	0.9	0.9	0.9	79	-4.1	0	0	---	0.00	30.540 
08:30	0.9	0.9	0.9	78	-4.3	0	0	---	0.00	30.546 
08:35	1.1	1.1	1.1	78	-4.1	0	0	---	0.00	30.546 
08:40	1.3	1.3	1.3	79	-3.7	0	1	270	0.00	30.546 
08:45	1.7	1.7	1.7	79	-3.3	0	0	---	0.00	30.551 
08:50	1.8	1.8	1.8	78	-3.4	0	1	270	0.00	30.551 
08:55	2.0	2.0	2.0	78	-3.3	0	1	270	0.00	30.551 
09:00	2.2	2.2	2.2	78	-3.1	0	1	270	0.00	30.552 
09:05	2.6	2.6	2.6	78	-2.7	0	1	270	0.00	30.552 
09:10	2.8	2.8	2.8	78	-2.5	0	1	270	0.00	30.552 
09:15	3.2	3.2	3.2	79	-1.8	0	0	---	0.00	30.552 
09:20	3.7	3.7	3.7	78	-1.6	0	0	---	0.00	30.552 
09:25	4.3	4.3	4.3	78	-1.0	0	1	270	0.00	30.552 
09:30	4.8	4.8	4.8	78	-0.5	0	1	270	0.00	30.550 
09:35	5.4	5.4	5.4	77	-0.2	0	1	270	0.00	30.550 
09:40	5.8	5.8	5.8	76	-0.1	0	1	270	0.00	30.550 
09:45	6.3	6.3	6.3	76	0.4	0	1	270	0.00	30.552 
09:50	6.7	6.7	6.7	75	0.5	0	1	270	0.00	30.552 
09:55	7.4	7.4	7.4	74	0.9	0	1	270	0.00	30.552 
10:00	8.3	8.3	8.3	73	1.5	0	1	270	0.00	30.553 
10:05	9.2	9.2	9.2	72	2.0	0	1	270	0.00	30.553 
10:10	9.7	9.7	9.7	69	1.6	0	1	270	0.00	30.553 
10:15	9.7	9.7	9.7	68	1.3	0	1	270	0.00	30.559 
10:20	10.0	10.0	10.0	68	1.6	0	1	270	0.00	30.559 
10:25	10.2	10.2	10.2	66	1.1	0	2	270	0.00	30.559 
10:30	10.0	10.0	10.0	65	0.6	0	2	270	0.00	30.561 
10:35	10.0	10.0	10.0	65	0.6	0	2	270	0.00	30.561 
10:40	10.2	10.2	10.2	65	0.8	0	2	270	0.00	30.561 
10:45	10.4	10.4	10.4	64	0.7	0	2	270	0.00	30.563 
10:50	10.5	10.5	10.5	64	0.8	0	1	270	0.00	30.563 
10:55	11.1	11.1	11.1	63	1.0	0	1	270	0.00	30.563 
11:00	11.4	11.4	11.4	63	1.3	0	1	270	0.00	30.563 
11:05	11.7	11.7	11.7	61	0.9	0	1	270	0.00	30.563 
11:10	11.9	11.9	11.9	61	1.1	0	1	270	0.00	30.563 
11:15	12.1	12.1	12.1	61	1.3	0	2	270	0.00	30.564 
11:20	12.3	12.3	12.3	60	1.1	0	1	270	0.00	30.564 
11:25	12.4	12.4	12.4	60	1.2	0	2	270	0.00	30.564 
11:30	12.8	12.8	12.8	59	1.2	0	2	270	0.00	30.564 
11:35	12.9	12.9	12.9	59	1.3	0	2	270	0.00	30.564 
11:40	13.3	13.3	13.3	59	1.7	0	3	270	0.00	30.564 
11:45	12.9	12.9	12.9	58	0.9	2	4	270	0.00	30.560 
11:50	12.4	12.4	12.4	59	0.8	1	4	270	0.00	30.560 
11:55	12.3	12.3	12.3	60	1.1	1	4	68	0.00	30.560 
12:00	12.1	12.1	12.1	59	0.6	1	6	90	0.00	30.560 
12:05	11.7	11.7	11.7	60	0.5	1	4	90	0.00	30.560 
12:10	11.7	11.7	11.7	61	0.9	0	3	90	0.00	30.560 
12:15	11.4	11.4	11.4	60	0.2	2	4	90	0.00	30.562 
12:20	11.4	11.4	11.4	61	0.6	1	4	90	0.00	30.562 
12:25	11.6	11.6	11.6	61	0.8	1	4	90	0.00	30.562 
12:30	11.6	11.6	11.6	61	0.8	1	3	90	0.00	30.556 
12:35	11.7	11.7	11.7	61	0.9	1	4	90	0.00	30.556 
12:40	11.9	11.9	11.9	61	1.1	1	3	90	0.00	30.556 
12:45	12.1	12.1	12.1	60	0.9	0	3	90	0.00	30.549 
12:50	12.4	12.4	12.4	60	1.2	0	2	90	0.00	30.549 
12:55	12.8	12.8	12.8	59	1.2	0	2	90	0.00	30.549 
13:00	12.9	12.9	12.9	58	0.9	0	2	90	0.00	30.547 
13:05	12.9	12.9	12.9	57	0.6	0	1	90	0.00	30.547 
13:10	13.3	13.3	13.3	57	0.9	0	1	90	0.00	30.547 
13:15	13.8	13.8	13.8	57	1.4	0	1	90	0.00	30.539 
13:20	14.1	14.1	14.1	55	0.9	1	3	90	0.00	30.539 
13:25	14.1	14.1	14.1	55	0.9	0	2	90	0.00	30.539 
13:30	14.0	14.0	14.0	57	1.6	1	4	90	0.00	30.537 
13:35	13.8	13.8	13.8	56	1.0	1	4	90	0.00	30.537 
13:40	14.0	14.0	14.0	57	1.6	0	2	90	0.00	30.537 
13:45	14.3	14.3	14.3	56	1.5	0	2	90	0.00	30.532 
13:50	14.4	14.4	14.4	55	1.2	1	3	90	0.00	30.532 
13:55	14.1	14.1	14.1	57	1.7	0	3	90	0.00	30.532 
14:00	14.1	14.1	14.1	56	1.3	0	2	90	0.00	30.530 
14:05	13.8	13.8	13.8	56	1.0	1	4	90	0.00	30.530 
14:10	13.5	13.5	13.5	57	1.1	1	3	90	0.00	30.530 
14:15	13.5	13.5	13.5	57	1.1	1	3	90	0.00	30.524 
14:20	13.8	13.8	13.8	57	1.4	0	2	90	0.00	30.524 
14:25	14.0	14.0	14.0	57	1.6	1	4	90	0.00	30.524 
14:30	13.8	13.8	13.8	57	1.4	1	3	90	0.00	30.524 
14:35	13.8	13.8	13.8	57	1.4	1	2	90	0.00	30.524 
14:40	13.5	13.5	13.5	57	1.1	1	4	90	0.00	30.524 
14:45	13.3	13.3	13.3	57	0.9	1	2	90	0.00	30.522 
14:50	13.3	13.3	13.3	58	1.3	0	2	90	0.00	30.522 
14:55	13.3	13.3	13.3	58	1.3	0	2	90	0.00	30.522 
15:00	13.5	13.5	13.5	58	1.5	0	2	90	0.00	30.523 
15:05	13.6	13.6	13.6	57	1.2	1	2	90	0.00	30.523 
15:10	13.6	13.6	13.6	57	1.2	1	2	90	0.00	30.523 
15:15	13.6	13.6	13.6	58	1.6	1	3	90	0.00	30.522 
15:20	13.6	13.6	13.6	57	1.2	1	4	90	0.00	30.522 
15:25	13.3	13.3	13.3	57	0.9	1	3	90	0.00	30.522 
15:30	13.3	13.3	13.3	59	1.7	0	2	90	0.00	30.518 
15:35	13.5	13.5	13.5	59	1.9	0	2	90	0.00	30.518 
15:40	13.6	13.6	13.6	58	1.6	1	3	90	0.00	30.518 
15:45	13.8	13.8	13.8	58	1.8	0	2	90	0.00	30.518 
15:50	13.8	13.8	13.8	58	1.8	0	3	90	0.00	30.518 
15:55	13.8	13.8	13.8	58	1.8	0	1	90	0.00	30.518 
16:00	13.8	13.8	13.8	58	1.8	1	2	90	0.00	30.519 
16:05	13.6	13.6	13.6	58	1.6	1	3	90	0.00	30.519 
16:10	13.5	13.5	13.5	58	1.5	0	2	90	0.00	30.519 
16:15	13.5	13.5	13.5	58	1.5	0	3	90	0.00	30.526 
16:20	13.3	13.3	13.3	58	1.3	1	4	90	0.00	30.526 
16:25	12.9	12.9	12.9	59	1.3	0	2	90	0.00	30.526 
16:30	12.9	12.9	12.9	59	1.3	0	2	90	0.00	30.521 
16:35	12.9	12.9	12.9	60	1.7	0	2	90	0.00	30.521 
16:40	12.8	12.8	12.8	60	1.6	0	2	90	0.00	30.521 
16:45	12.8	12.8	12.8	60	1.6	0	1	90	0.00	30.523 
16:50	12.6	12.6	12.6	60	1.4	0	1	90	0.00	30.523 
16:55	12.6	12.6	12.6	60	1.4	0	1	90	0.00	30.523 
17:00	12.4	12.4	12.4	60	1.2	0	2	90	0.00	30.522 
17:05	12.3	12.3	12.3	60	1.1	0	1	90	0.00	30.522 
17:10	12.1	12.1	12.1	60	0.9	0	1	90	0.00	30.522 
17:15	11.9	11.9	11.9	61	1.1	0	1	90	0.00	30.524 
17:20	11.7	11.7	11.7	61	0.9	0	1	90	0.00	30.524 
17:25	11.6	11.6	11.6	61	0.8	0	2	90	0.00	30.524 
17:30	11.4	11.4	11.4	61	0.6	0	2	90	0.00	30.523 
17:35	11.2	11.2	11.2	61	0.4	0	2	90	0.00	30.523 
17:40	10.9	10.9	10.9	61	0.1	0	1	90	0.00	30.523 
17:45	10.7	10.7	10.7	61	-0.1	0	1	90	0.00	30.517 
17:50	10.4	10.4	10.4	61	-0.3	0	1	90	0.00	30.517 
17:55	10.0	10.0	10.0	62	-0.4	0	1	90	0.00	30.517 
18:00	9.7	9.7	9.7	62	-0.7	0	1	90	0.00	30.526 
18:05	9.3	9.3	9.3	62	-1.0	0	1	90	0.00	30.526 
18:10	9.0	9.0	9.0	62	-1.3	0	1	90	0.00	30.526 
18:15	8.6	8.6	8.6	62	-1.7	0	1	90	0.00	30.521 
18:20	8.3	8.3	8.3	63	-1.7	0	0	---	0.00	30.521 
18:25	7.9	7.9	7.9	63	-2.0	0	0	---	0.00	30.521 
18:30	7.6	7.6	7.6	63	-2.3	0	0	---	0.00	30.524 
18:35	7.2	7.2	7.2	63	-2.7	0	0	---	0.00	30.524 
18:40	6.7	6.7	6.7	64	-2.9	0	0	---	0.00	30.524 
18:45	6.1	6.1	6.1	64	-3.4	0	0	---	0.00	30.526 
18:50	5.8	5.8	5.8	65	-3.4	0	0	---	0.00	30.526 
18:55	5.4	5.4	5.4	65	-3.8	0	0	---	0.00	30.526 
19:00	4.8	4.8	4.8	65	-4.3	0	0	---	0.00	30.529 
19:05	4.5	4.5	4.5	66	-4.3	0	0	---	0.00	30.529 
19:10	4.3	4.3	4.3	67	-4.2	0	0	---	0.00	30.529 
19:15	3.9	3.9	3.9	67	-4.6	0	0	---	0.00	30.531 
19:20	3.5	3.5	3.5	69	-4.4	0	0	---	0.00	30.531 
19:25	3.4	3.4	3.4	70	-4.1	0	0	---	0.00	30.531 
19:30	3.2	3.2	3.2	71	-4.0	0	0	---	0.00	30.529 
19:35	3.0	3.0	3.0	71	-4.2	0	0	---	0.00	30.529 
19:40	2.8	2.8	2.8	72	-4.1	0	0	---	0.00	30.529 
19:45	2.6	2.6	2.6	72	-4.3	0	0	---	0.00	30.528 
19:50	2.2	2.2	2.2	72	-4.7	0	0	---	0.00	30.528 
19:55	1.8	1.8	1.8	73	-4.8	0	0	---	0.00	30.528 
20:00	1.5	1.5	1.5	73	-5.1	0	0	---	0.00	30.520 
20:05	1.1	1.1	1.1	73	-5.5	0	0	---	0.00	30.520 
20:10	0.9	0.9	0.9	73	-5.7	0	0	---	0.00	30.520 
20:15	0.7	0.7	0.7	74	-5.6	0	0	---	0.00	30.513 
20:20	0.3	0.3	0.3	74	-6.0	0	0	---	0.00	30.513 
20:25	0.1	0.1	0.1	75	-5.9	0	0	---	0.00	30.513 
20:30	0.0	0.0	0.0	75	-6.0	0	0	---	0.00	30.519 
20:35	-0.2	-0.2	-0.2	75	-6.2	0	0	---	0.00	30.519 
20:40	-0.6	-0.6	-0.6	75	-6.6	0	0	---	0.00	30.519 
20:45	-0.8	-0.8	-0.8	75	-6.8	0	0	---	0.00	30.514 
20:50	-1.0	-1.0	-1.0	75	-7.0	0	0	---	0.00	30.514 
20:55	-1.0	-1.0	-1.0	76	-6.7	0	0	---	0.00	30.514 
21:00	-1.2	-1.2	-1.2	76	-6.9	0	0	---	0.00	30.506 
21:05	-1.4	-1.4	-1.4	76	-7.1	0	0	---	0.00	30.506 
21:10	-1.6	-1.6	-1.6	76	-7.3	0	0	---	0.00	30.506 
21:15	-1.8	-1.8	-1.8	77	-7.2	0	0	---	0.00	30.502 
21:20	-2.0	-2.0	-2.0	77	-7.4	0	0	---	0.00	30.502 
21:25	-2.0	-2.0	-2.0	77	-7.4	0	0	---	0.00	30.502 
21:30	-2.0	-2.0	-2.0	77	-7.4	0	0	---	0.00	30.508 
21:35	-2.2	-2.2	-2.2	77	-7.6	0	0	---	0.00	30.508 
21:40	-2.4	-2.4	-2.4	77	-7.8	0	0	---	0.00	30.508 
21:45	-2.6	-2.6	-2.6	77	-8.0	0	0	---	0.00	30.505 
21:50	-2.8	-2.8	-2.8	77	-8.2	0	0	---	0.00	30.505 
21:55	-3.1	-3.1	-3.1	77	-8.5	0	0	---	0.00	30.505 
22:00	-3.3	-3.3	-3.3	77	-8.7	0	0	---	0.00	30.506 
22:05	-3.3	-3.3	-3.3	77	-8.7	0	0	---	0.00	30.506 
22:10	-3.3	-3.3	-3.3	77	-8.7	0	0	---	0.00	30.506 
22:15	-3.1	-3.1	-3.1	78	-8.2	0	0	---	0.00	30.513 
22:20	-3.3	-3.3	-3.3	77	-8.7	0	0	---	0.00	30.513 
22:25	-3.5	-3.5	-3.5	77	-8.9	0	0	---	0.00	30.513 
22:30	-3.7	-3.7	-3.7	77	-9.1	0	0	---	0.00	30.509 
22:35	-3.9	-3.9	-3.9	77	-9.3	0	0	---	0.00	30.509 
22:40	-4.1	-4.1	-4.1	77	-9.5	0	0	---	0.00	30.509 
22:45	-4.3	-4.3	-4.3	77	-9.6	0	0	---	0.00	30.510 
22:50	-4.6	-4.6	-4.6	77	-9.9	0	0	---	0.00	30.510 
22:55	-4.8	-4.8	-4.8	77	-10.1	0	0	---	0.00	30.510 
23:00	-5.0	-5.0	-5.0	77	-10.3	0	0	---	0.00	30.518 
23:05	-5.2	-5.2	-5.2	77	-10.5	0	0	---	0.00	30.518 
23:10	-5.2	-5.2	-5.2	77	-10.5	0	0	---	0.00	30.518 
23:15	-5.4	-5.4	-5.4	77	-10.7	0	0	---	0.00	30.510 
23:20	-5.6	-5.6	-5.6	77	-10.9	0	0	---	0.00	30.510 
23:25	-5.9	-5.9	-5.9	77	-11.2	0	0	---	0.00	30.510 
23:30	-5.9	-5.9	-5.9	77	-11.2	0	0	---	0.00	30.510 
23:35	-5.9	-5.9	-5.9	77	-11.2	0	0	---	0.00	30.510 
23:40	-6.1	-6.1	-6.1	76	-11.7	0	0	---	0.00	30.510 
23:45	-6.3	-6.3	-6.3	76	-11.9	0	0	---	0.00	30.507 
23:50	-6.5	-6.5	-6.5	76	-12.0	0	0	---	0.00	30.507 
23:55	-6.5	-6.5	-6.5	76	-12.0	0	0	---	0.00	30.507 

CoCoRaHS
IN-AL-39
A2 Web Hosting
Creative Commons License
GoDaddy
search engine by freefind advanced

loaded 2018-11-17 00:00:14 • last modified 2010-11-18 10:43:29
Privacy PolicyDisclaimer
• wx.awcolley.com is powered by PmWiki v.2002016 •
• all content (unless otherwise noted) © 2018 A W Colley